Aviation Digital Data Service (ADDS)

Output produced by METARs form (1937 UTC 25 September 2020)
found at http://www.aviationweather.gov/metar/data/
 
METAR text: RKTP 240827Z 06005KT 9999 FEW050 BKN170 24/16 A2990 RMK CIG170
Conditions at: RKTP (HAE MI , KR) observed 0827 UTC 24 September 2020
Temperature: 24.0°C (75°F)
Dewpoint: 16.0°C (61°F) [RH = 61%]
Pressure (altimeter): 29.90 inches Hg (1012.6 mb)
Winds: from the ENE (60 degrees) at 6 MPH (5 knots; 2.6 m/s)
Visibility: 6 or more miles (10+ km)
Ceiling: 17000 feet AGL
Clouds: few clouds at 5000 feet AGL
broken clouds at 17000 feet AGL
Weather: no significant weather observed at this time